Date,TemperatureHighF,TemperatureAvgF,TemperatureLowF,DewpointHighF,DewpointAvgF,DewpointLowF,HumidityHigh,HumidityAvg,HumidityLow,PressureMaxIn,PressureMinIn,WindSpeedMaxMPH,WindSpeedAvgMPH,GustSpeedMaxMPH,PrecipitationSumIn
2012-2-10,43,42,40,37,36,35,83,81,77,29.98,29.90,0,0,0,0.00
2012-2-11,48,33,23,37,14,3,88,47,33,30.11,29.80,29,5,29,0.00
2012-2-12,42,31,19,14,10,3,56,42,31,30.28,30.07,16,2,16,0.00
2012-2-13,52,37,23,21,18,13,71,47,28,30.29,30.11,5,0,5,0.00
2012-2-14,55,46,40,38,30,20,77,54,44,30.15,30.01,5,0,5,0.00
2012-2-15,63,49,32,39,33,29,89,58,33,30.29,30.06,6,0,6,0.00
2012-2-16,64,51,45,50,42,29,92,73,54,30.28,30.02,8,0,8,28.82
2012-2-17,62,52,42,47,38,28,94,62,38,30.16,30.06,12,1,12,0.00
2012-2-18,66,52,38,40,34,27,68,50,31,30.15,29.97,7,0,7,0.00
2012-2-19,52,40,32,41,34,4,92,79,54,29.99,29.79,15,1,15,0.43
2012-2-20,49,40,30,33,28,24,92,63,40,30.34,29.98,8,1,8,0.33
2012-2-21,59,43,29,39,33,24,83,68,45,30.33,30.00,8,0,8,0.00
2012-2-22,69,52,37,48,42,35,92,71,38,30.00,29.59,13,0,13,0.29
2012-2-23,73,64,42,60,54,40,93,69,55,29.72,29.59,6,0,6,0.31
2012-2-24,81,64,43,63,51,23,86,65,37,29.93,29.48,13,2,13,0.31
2012-2-25,54,42,34,24,21,16,60,43,30,30.34,29.93,14,2,14,0.00
2012-2-26,55,40,27,26,22,17,73,50,31,30.50,30.33,10,0,10,0.00
2012-2-27,57,44,32,46,35,22,89,70,55,30.46,30.32,6,0,6,0.00
2012-2-28,69,53,37,44,36,29,93,59,25,30.44,30.28,9,1,9,0.00
2012-2-29,67,57,52,59,48,36,92,74,53,30.29,29.83,7,1,7,0.12
2012-3-1,79,64,47,60,45,26,95,58,21,29.92,29.78,10,0,10,0.00
2012-3-2,58,50,41,50,42,30,93,75,52,30.02,29.72,5,0,5,0.10
2012-3-3,63,54,50,52,43,28,94,70,40,29.80,29.62,10,1,10,0.45
2012-3-4,53,45,32,34,24,16,67,45,29,30.02,29.71,16,2,16,0.00
2012-3-5,51,40,31,33,22,16,71,51,30,30.50,29.90,21,3,21,0.00
2012-3-6,60,38,27,28,21,17,72,54,27,30.66,30.50,6,0,6,0.00
2012-3-7,71,52,34,47,38,23,75,59,39,30.63,30.44,8,1,8,0.00
2012-3-8,74,60,52,56,51,47,85,71,47,30.45,30.12,12,1,12,0.00
2012-3-9,61,55,42,55,38,25,92,58,27,30.35,30.09,11,2,11,0.14
2012-3-10,63,47,37,27,23,20,55,40,24,30.53,30.34,8,1,8,0.00
2012-3-11,68,48,31,36,28,22,77,49,25,30.59,30.43,7,0,7,0.00
2012-3-12,71,56,41,54,42,29,72,60,48,30.44,30.25,11,0,11,0.00
2012-3-13,82,65,56,61,54,48,87,70,44,30.27,30.12,9,0,9,0.00
2012-3-14,86,69,52,60,51,46,93,57,27,30.27,30.18,8,0,8,0.00
2012-3-15,86,65,52,56,51,47,84,63,32,30.31,30.21,15,1,15,0.00
2012-3-16,83,64,51,59,53,48,89,69,39,30.27,30.12,8,0,8,0.00
2012-3-17,84,66,56,59,56,53,89,72,39,30.27,30.18,12,1,12,0.10
2012-3-18,135,61,56,100,57,54,94,88,73,30.36,30.25,6,0,6,0.00
2012-3-22,82,72,62,64,61,56,84,68,52,30.30,30.16,5,0,5,0.00
2012-3-23,87,68,55,66,59,53,93,74,46,30.18,29.99,10,0,10,0.14
2012-3-24,83,66,58,67,60,54,94,81,49,30.01,29.76,8,1,8,0.63
2012-3-25,68,59,52,55,53,49,91,82,61,29.87,29.74,12,1,12,0.06
2012-3-26,76,64,55,55,48,32,91,59,33,30.15,29.85,11,2,11,0.00
2012-3-27,68,53,42,36,30,24,56,41,28,30.37,30.14,7,0,7,0.00
2012-3-28,78,60,44,60,48,34,80,66,52,30.26,29.91,12,0,12,0.00
2012-3-29,84,68,54,56,46,36,85,52,21,29.98,29.88,13,1,13,0.00
2012-3-30,80,64,52,55,47,39,71,56,37,30.10,29.89,6,0,6,0.00
2012-3-31,79,67,60,63,57,50,89,72,46,29.90,29.74,5,0,5,0.14
2012-4-1,75,63,52,55,52,48,88,69,44,29.95,29.76,4,0,4,0.00
2012-4-2,83,67,57,64,55,50,92,69,39,29.97,29.70,13,1,13,0.08
2012-4-3,82,64,48,60,52,42,91,67,41,30.06,29.90,9,1,9,0.45
2012-4-4,87,70,56,66,61,54,93,74,45,29.89,29.67,7,0,7,0.20
2012-4-5,70,60,50,61,50,42,94,73,40,29.86,29.70,9,1,9,0.18
2012-4-6,67,55,46,44,40,26,89,61,28,30.13,29.86,9,1,9,0.08
2012-4-7,72,56,40,41,36,30,89,49,22,30.30,30.12,6,0,6,0.00
2012-4-8,80,64,42,45,40,36,81,44,25,30.18,29.96,7,1,7,0.00
2012-4-9,77,62,46,39,34,30,62,36,24,30.10,29.87,7,1,7,0.00
2012-4-10,74,60,46,40,35,24,62,39,26,29.98,29.81,7,0,7,0.00
2012-4-11,59,49,40,30,25,21,62,40,29,30.18,29.88,58,2,58,0.00
2012-4-12,67,47,32,34,28,23,74,49,28,30.26,30.12,5,0,5,0.00
2012-4-13,45,42,40,32,32,31,74,67,60,30.19,30.16,0,0,0,0.00
2012-4-20,74,66,58,58,55,54,86,69,55,29.95,29.89,3,0,3,0.00
2012-4-21,83,67,55,64,57,52,92,73,46,29.91,29.72,11,0,11,0.00
2012-4-22,62,54,47,54,50,42,93,85,73,29.78,29.57,8,1,8,0.45
2012-4-23,55,47,39,42,36,30,89,67,41,29.73,29.55,10,1,10,0.02
2012-4-24,67,50,33,36,32,28,84,55,26,29.85,29.71,9,0,9,0.00
2012-4-25,70,56,44,53,47,36,89,73,52,30.01,29.84,5,0,5,0.06
2012-4-26,79,63,53,66,58,50,93,82,59,29.93,29.80,9,0,9,0.35
2012-4-27,68,61,57,60,56,46,94,85,59,30.12,29.87,2,0,2,0.00
2012-4-28,61,57,53,48,46,42,77,65,56,30.23,30.11,8,0,8,0.00
2012-4-29,85,69,51,63,57,47,88,67,46,30.22,30.12,8,1,8,0.00
2012-4-30,85,72,0,68,64,60,89,73,54,30.26,30.11,8,1,8,0.00
2012-5-1,91,76,64,70,66,61,89,73,48,30.17,30.06,11,0,11,0.00
2012-5-2,94,77,64,71,66,61,91,70,42,30.17,30.07,3,0,3,0.00
2012-5-3,94,77,62,70,64,58,89,67,42,30.18,30.08,6,0,6,0.00
2012-5-4,92,75,63,68,62,58,90,66,41,30.12,29.95,2,0,2,0.00
2012-5-5,91,73,63,69,64,59,87,74,46,29.98,29.86,7,0,7,0.02
2012-5-6,80,71,65,64,62,59,86,74,55,30.08,29.95,6,0,6,0.00
2012-5-7,83,69,60,64,59,56,92,72,50,30.11,29.98,4,0,4,0.00
2012-5-8,81,71,64,67,63,59,91,77,62,30.04,29.87,9,1,9,0.27
2012-5-9,73,65,57,67,62,55,94,90,80,29.93,29.75,5,0,5,0.86
2012-5-10,74,60,49,56,50,44,95,70,42,30.03,29.79,8,0,8,0.00
2012-5-11,75,53,45,47,43,41,89,70,30,30.25,30.02,1,0,1,0.00
2012-5-12,81,64,48,54,50,43,87,62,32,30.37,30.25,7,0,7,0.00
2012-5-13,74,64,54,62,57,50,91,79,63,30.28,30.14,7,0,7,0.55
2012-5-14,75,66,60,69,62,58,95,89,77,30.14,29.94,9,1,9,3.77
2012-5-15,81,65,59,68,61,57,95,88,62,30.04,29.96,0,0,0,0.00
2012-5-16,85,71,62,67,63,60,94,77,54,30.02,29.93,0,0,0,0.10
2012-5-17,86,72,60,64,61,57,93,69,46,30.09,29.96,0,0,0,0.00
2012-5-18,79,68,60,61,56,48,88,65,45,30.16,30.07,0,0,0,0.00
2012-5-19,81,66,54,55,52,48,83,62,39,30.21,30.11,0,0,0,0.00
2012-5-20,85,69,53,59,54,49,89,63,35,30.18,30.07,0,0,0,0.00
2012-5-21,86,68,62,64,60,55,90,75,47,30.09,29.91,0,0,0,0.22
2012-5-22,88,72,62,68,63,59,91,74,48,29.96,29.82,0,0,0,0.94
2012-5-23,81,69,62,67,63,59,93,80,56,29.98,29.85,0,0,0,0.73
2012-5-24,84,72,64,70,64,61,91,77,52,30.10,29.97,0,0,0,0.00
2012-5-25,91,76,64,71,64,59,93,69,37,30.17,30.08,0,0,0,0.00
2012-5-26,91,77,66,72,66,62,91,71,51,30.20,30.11,0,0,0,0.00
2012-5-27,90,76,65,68,65,62,90,70,43,30.20,30.10,0,0,0,0.00
2012-5-28,89,77,70,71,68,65,91,74,53,30.14,30.02,4,0,4,0.00
2012-5-29,88,76,68,72,68,65,92,77,55,30.06,29.88,6,0,6,0.00
2012-5-30,88,76,68,69,64,53,91,70,36,29.90,29.78,5,0,6,0.00
2012-5-31,92,77,64,65,61,56,77,60,38,29.94,29.85,4,0,6,0.00
2012-6-1,87,74,63,70,65,59,88,75,56,29.91,29.73,5,1,8,0.12
2012-6-2,63,61,59,59,56,52,89,85,79,29.87,29.85,1,0,2,0.00
2012-6-3,84,75,51,59,56,47,88,53,39,30.00,29.85,4,0,4,0.00
2012-6-4,85,77,64,63,57,53,74,51,39,29.88,29.72,4,1,6,0.00
2012-6-5,79,68,62,58,55,51,82,64,43,29.95,29.77,3,0,7,0.00
2012-6-6,70,63,57,58,56,54,90,78,64,30.06,29.93,6,1,6,0.39
2012-6-7,83,68,56,62,56,52,92,69,42,30.10,30.03,4,0,4,0.00
2012-6-8,86,70,55,59,54,50,90,62,33,30.12,30.02,2,0,3,0.00
2012-6-9,92,74,57,65,59,53,87,63,35,30.14,30.04,2,0,3,0.00
2012-6-10,88,75,63,65,61,57,83,63,40,30.20,30.10,4,0,6,0.00
2012-6-11,79,72,69,70,67,60,93,85,68,30.20,30.04,7,1,9,0.37
2012-6-12,88,75,68,76,70,64,95,84,63,30.05,29.89,5,0,7,0.29
2012-6-13,89,76,65,71,66,61,94,73,50,30.08,29.95,2,0,6,0.00
2012-6-14,85,78,67,61,60,57,77,56,45,30.22,30.07,13,1,57,0.00
2012-6-15,84,71,62,64,60,57,90,71,45,30.29,30.19,6,0,10,0.00
2012-6-16,83,71,58,59,55,52,87,59,38,30.33,30.19,5,1,11,0.00
2012-6-17,86,72,60,63,58,53,83,63,44,30.24,30.06,2,0,5,0.00
2012-6-18,71,70,68,61,60,59,74,71,68,30.10,30.08,2,0,3,0.00
2012-6-20,97,87,76,73,69,67,77,57,39,30.22,30.10,3,0,7,0.00
2012-6-21,101,83,69,74,69,66,88,64,37,30.12,29.94,2,0,4,0.00
2012-6-22,94,76,70,71,68,64,91,77,45,29.98,29.89,4,0,7,0.02
2012-6-23,92,78,68,71,68,64,93,74,46,30.06,29.94,4,0,7,0.00
2012-6-24,96,80,68,72,66,63,89,66,39,30.07,29.94,6,0,8,0.00
2012-6-26,84,76,64,52,49,46,62,40,28,29.97,29.88,5,1,6,0.00
2012-6-27,89,74,59,55,52,48,74,48,26,30.05,29.94,3,0,5,0.00
2012-6-28,99,79,60,63,58,52,80,52,26,30.07,29.93,2,0,3,0.00
2012-6-29,106,87,68,72,66,22,78,52,32,29.96,29.82,8,0,11,0.00
2012-6-30,105,87,71,72,66,60,70,51,33,29.97,29.88,0,0,1,0.00
2012-7-1,104,87,74,72,64,57,67,48,23,30.07,29.91,5,0,6,0.00
2012-7-2,96,81,67,69,65,61,91,63,35,30.17,30.01,6,0,9,0.29
2012-7-3,100,83,71,73,69,65,87,64,38,30.07,29.96,2,0,3,0.00
2012-7-4,100,83,70,72,68,65,88,63,34,30.05,29.95,2,0,6,0.00
2012-7-5,102,84,72,74,68,62,88,62,33,30.02,29.93,3,0,4,0.00
2012-7-6,101,83,68,72,67,62,83,60,37,30.03,29.95,0,0,0,0.00
2012-7-7,105,87,73,74,70,67,85,60,34,30.06,29.97,0,0,0,0.00
2012-7-8,104,87,74,76,70,68,83,60,33,30.02,29.88,0,0,0,0.00
2012-7-9,101,85,72,72,69,66,88,61,36,30.03,29.89,0,0,0,0.08
2012-7-10,86,76,72,72,70,67,92,81,60,30.08,30.00,0,0,0,0.14
2012-7-11,80,72,65,73,68,60,92,86,75,30.19,30.07,0,0,0,0.94
2012-7-12,84,73,65,69,65,60,87,76,60,30.22,30.16,0,0,0,0.00
2012-7-13,92,78,70,74,69,66,91,77,49,30.24,30.16,0,0,0,0.22
2012-7-14,83,74,71,77,71,69,94,92,80,30.27,30.20,0,0,0,0.00
2012-7-15,95,85,70,76,73,68,93,70,49,30.24,30.11,0,0,0,0.00
2012-7-16,78,74,73,74,71,70,90,88,83,30.14,30.09,0,0,0,0.00
2012-7-19,80,79,78,70,70,70,78,74,70,30.01,29.99,0,0,0,0.00
2012-7-20,78,74,71,71,69,68,90,86,78,30.00,29.95,0,0,0,0.00
2012-7-25,93,81,70,76,71,67,91,74,53,30.03,29.94,0,0,0,0.02
2012-7-26,86,75,73,77,71,70,92,87,74,29.97,29.90,0,0,0,0.00
2012-7-27,103,86,74,74,72,66,89,67,36,30.01,29.90,0,0,0,0.53
2012-7-28,98,82,70,75,70,67,94,70,40,30.04,29.94,0,0,0,0.00
2012-7-29,93,80,68,68,65,62,91,64,39,30.07,29.98,0,0,0,0.00
2012-7-30,91,76,70,73,67,64,86,76,47,30.09,29.98,0,0,0,0.00
2012-8-1,94,82,70,71,68,66,91,67,42,29.98,29.88,0,0,0,0.00
2012-8-2,95,82,71,71,68,64,89,66,42,29.99,29.91,0,0,0,0.51
2012-8-3,93,79,69,73,69,66,90,73,52,30.11,29.97,0,0,0,0.00
2012-8-4,93,82,71,73,70,68,91,69,47,30.24,30.11,0,0,0,0.00
2012-8-5,95,82,72,74,71,68,87,71,48,30.27,30.15,0,0,0,0.00
2012-8-6,90,80,73,76,71,70,91,76,53,30.18,30.04,0,0,0,0.04
2012-8-7,88,78,72,75,72,70,93,83,62,30.09,30.00,0,0,0,0.39
2012-8-8,93,80,0,75,71,66,88,72,53,30.05,29.99,0,0,0,0.53
2012-8-9,92,78,68,75,70,66,95,78,55,30.04,29.91,0,0,0,0.31
2012-8-10,88,77,69,74,70,66,93,81,60,29.96,29.84,0,0,0,0.35
2012-8-11,85,74,68,74,69,65,94,86,65,30.00,29.89,0,0,0,1.08
2012-8-12,89,75,67,69,66,62,95,75,47,30.07,29.98,0,0,0,0.00
2012-8-13,91,76,65,70,65,62,92,71,45,30.11,29.99,0,0,0,0.00
2012-8-14,92,78,68,71,67,63,87,71,48,30.02,29.90,0,0,0,0.08
2012-8-15,90,76,68,72,68,63,93,77,50,30.02,29.93,0,0,0,0.00
2012-8-16,91,75,63,67,63,60,89,67,39,30.09,29.98,0,0,0,0.00
2012-8-17,93,75,64,71,66,61,90,75,42,30.04,29.90,0,0,0,0.02
2012-8-18,85,75,67,71,66,64,93,76,52,29.99,29.89,0,0,0,0.00
2012-8-19,73,70,67,70,66,64,94,89,80,29.96,29.91,0,0,0,0.59
2012-8-20,84,72,65,68,65,61,93,81,56,30.03,29.90,0,0,0,0.00
2012-8-21,86,73,63,68,64,61,94,76,47,30.11,30.02,0,0,0,0.00
2012-8-22,84,73,67,71,66,64,91,81,58,30.17,30.09,0,0,0,0.00
2012-8-23,86,74,65,70,65,62,93,75,49,30.20,30.13,0,0,0,0.00
2012-8-24,86,73,65,68,62,54,91,71,39,30.21,30.14,0,0,0,0.00
2012-8-25,82,70,59,62,58,55,88,68,42,30.21,30.14,0,0,0,0.00
2012-8-26,86,72,61,66,62,57,89,71,49,30.23,30.14,0,0,0,0.00
2012-8-27,92,76,65,70,65,62,92,71,43,30.22,30.06,0,0,0,0.00
2012-8-28,94,79,71,73,70,67,92,75,47,30.08,29.95,0,0,0,0.00
2012-8-29,88,77,70,74,69,65,94,78,53,30.06,29.98,0,0,0,0.10
2012-8-30,91,78,69,76,71,67,94,80,54,30.20,30.04,0,0,0,0.00
2012-8-31,94,81,73,77,73,70,94,79,55,30.27,30.13,0,0,0,0.00
2012-9-1,94,79,72,76,72,69,93,80,48,30.19,30.09,0,0,0,0.00
2012-9-2,94,80,72,76,72,68,93,79,49,30.11,29.96,0,0,0,0.04
2012-9-3,87,75,70,77,71,68,94,88,70,30.09,29.99,0,0,0,0.16
2012-9-4,88,76,72,76,72,70,94,87,65,30.05,29.96,0,0,0,0.00
2012-9-5,86,76,71,75,72,70,95,86,66,30.00,29.90,0,0,0,0.00
2012-9-6,88,78,71,77,72,69,93,84,67,30.01,29.92,0,0,0,0.14
2012-9-7,91,76,67,75,69,66,95,81,53,30.03,29.90,0,0,0,0.00
2012-9-8,76,70,67,71,66,61,94,88,68,29.92,29.76,0,0,0,0.02
2012-9-9,68,38,0,62,55,53,83,45,71,30.05,29.90,0,0,0,0.00
2012-9-10,82,68,0,60,54,46,90,52,43,30.21,30.05,0,0,0,0.00
2012-9-11,81,49,0,59,52,46,86,42,43,30.35,30.21,0,0,0,0.00
2012-9-12,72,61,56,58,55,53,91,81,56,30.38,30.31,0,0,0,0.00
2012-9-13,80,66,54,61,55,22,91,70,44,30.41,30.28,0,0,0,0.00
2012-9-14,83,68,57,67,59,54,89,74,46,30.32,30.19,0,0,0,0.00
2012-9-15,63,63,63,58,58,58,84,84,84,30.19,30.19,0,0,0,0.00
2012-9-16,70,65,61,62,61,59,91,87,76,30.21,30.12,0,0,0,0.12
2012-9-17,74,28,0,69,63,61,95,38,81,30.16,29.94,0,0,0,0.00
2012-9-18,80,71,67,74,69,65,96,91,81,29.95,29.75,0,0,0,0.20
2012-9-19,75,67,60,65,56,54,95,69,50,30.18,29.88,0,0,0,0.00
2012-9-20,78,68,54,61,58,52,93,71,52,30.22,30.09,0,0,0,0.00
2012-9-21,83,72,56,67,62,54,93,72,52,30.14,30.01,0,0,0,0.00
2012-9-22,86,74,62,69,64,60,93,73,50,30.04,29.92,0,0,0,0.00
2012-9-23,75,63,54,63,50,41,92,67,32,30.19,30.01,0,0,0,0.00
2012-9-24,72,60,47,46,43,39,84,55,34,30.29,30.18,0,0,0,0.41
2012-9-25,77,64,46,60,54,43,91,72,52,30.28,30.18,0,0,0,0.00
2012-9-26,82,67,56,65,59,53,91,76,53,30.25,30.18,0,0,0,0.00
2012-9-27,85,75,60,66,62,57,93,66,47,30.24,30.11,0,0,0,0.00
2012-9-28,85,68,59,68,62,57,93,82,51,30.15,30.03,0,0,0,0.04
2012-9-29,68,64,60,65,62,59,96,94,89,30.05,29.94,0,0,0,0.04
2012-9-30,71,62,55,60,57,54,96,84,57,29.99,29.89,0,0,0,0.00
2012-10-1,62,60,60,60,58,56,96,92,84,29.96,29.89,0,0,0,0.00
2012-10-2,81,72,61,75,69,60,97,91,77,30.00,29.84,0,0,0,0.00
2012-10-3,81,69,67,70,66,64,96,91,66,30.23,29.99,0,0,0,0.00
2012-10-4,78,68,61,67,62,58,94,83,58,30.28,30.19,0,0,0,0.00
2012-10-5,80,68,54,64,58,53,95,72,45,30.24,30.05,0,0,0,0.00
2012-10-6,82,67,58,65,59,53,94,77,52,30.06,29.93,0,0,0,0.57
2012-10-7,61,52,49,54,48,47,93,87,74,30.19,30.02,0,0,0,0.02
2012-10-8,50,47,45,47,44,42,93,87,80,30.27,30.17,0,0,0,0.00
2012-10-9,61,52,45,52,48,43,94,85,70,30.22,30.11,0,0,0,0.00
2012-10-10,70,60,47,56,51,45,94,74,56,30.17,30.03,0,0,0,0.00
2012-10-11,67,54,0,48,42,37,85,64,36,30.33,30.15,0,0,0,0.00
2012-10-12,72,56,44,52,46,42,91,71,38,30.36,30.20,0,0,0,0.00
2012-10-13,66,54,44,46,42,38,86,67,42,30.51,30.34,0,0,0,0.00
2012-10-14,73,58,44,60,52,42,92,80,59,30.35,30.05,0,0,0,0.00
2012-10-15,71,64,53,66,57,44,94,79,53,30.07,29.77,0,0,0,0.71
2012-10-16,68,58,44,47,45,41,89,65,44,30.01,29.90,0,0,0,0.00
2012-10-17,72,60,46,54,48,43,91,67,46,30.03,29.93,0,0,0,0.00
2012-10-18,72,60,48,62,54,44,92,82,69,29.96,29.80,0,0,0,0.08
2012-10-19,71,59,50,60,50,41,95,75,45,29.82,29.73,0,0,0,0.00
2012-10-20,68,55,43,48,43,40,90,67,44,30.02,29.79,0,0,0,0.00
2012-10-21,65,54,41,44,42,37,88,64,42,30.19,30.01,0,0,0,0.00
2012-10-22,73,56,42,54,47,40,91,73,42,30.27,30.16,0,0,0,0.00
2012-10-23,77,60,47,58,50,45,92,74,46,30.22,30.12,0,0,0,0.00
2012-10-24,78,61,49,59,52,46,91,74,47,30.23,30.11,0,0,0,0.00
2012-10-25,78,63,49,61,54,47,93,75,51,30.21,30.12,0,0,0,0.00
2012-10-26,67,61,54,60,57,52,93,86,75,30.17,30.01,57,0,57,0.00
2012-10-27,70,63,59,60,56,51,93,79,59,30.01,29.78,0,0,0,0.00
2012-10-28,69,60,51,52,48,38,78,65,48,29.81,29.65,0,0,0,0.00
2012-10-29,52,47,44,38,34,30,70,61,54,29.70,29.42,0,0,0,0.02
2012-10-30,52,46,39,32,30,29,72,55,44,29.64,29.38,0,0,0,0.00
2012-10-31,56,44,34,39,34,30,85,67,46,29.81,29.63,0,0,0,0.00
2012-11-1,58,49,38,37,35,30,72,58,45,29.89,29.80,0,0,0,0.00
2012-11-2,61,49,35,40,34,29,80,58,36,30.01,29.86,0,0,0,0.00
2012-11-3,60,50,38,37,32,29,73,52,37,30.13,30.00,5,0,5,0.43
2012-11-4,60,50,43,44,39,34,78,65,54,30.09,29.98,8,0,8,0.00
2012-11-5,55,44,35,37,32,29,85,63,39,30.13,30.04,8,0,8,0.00
2012-11-6,44,39,35,33,31,29,80,73,63,30.16,29.97,8,1,8,0.00
2012-11-7,54,42,31,35,32,27,85,69,47,29.98,29.86,5,0,5,0.00
2012-11-8,61,46,33,37,28,21,88,56,24,30.17,29.97,13,1,13,0.00
2012-11-9,65,47,33,36,30,26,76,54,29,30.28,30.17,6,0,6,0.00
2012-11-10,72,50,34,42,34,29,85,60,29,30.38,30.26,6,0,6,0.00
2012-11-11,72,54,37,50,42,32,83,66,39,30.49,30.37,5,0,5,0.00
2012-11-12,70,61,54,60,56,50,91,84,70,30.42,30.18,13,1,13,0.00
2012-11-13,63,48,36,60,38,28,92,72,41,30.43,30.18,11,2,11,0.14
2012-11-14,50,41,32,33,29,26,84,65,47,30.51,30.37,57,1,57,0.00
2012-11-15,46,40,33,34,30,28,84,69,55,30.39,30.26,7,1,7,0.00
2012-11-16,58,41,29,39,31,26,90,70,43,30.42,30.28,57,0,57,0.00
2012-11-17,58,44,34,31,27,23,80,55,30,30.51,30.39,14,2,14,0.00
2012-11-18,57,50,43,42,38,26,72,64,52,30.50,30.39,14,4,14,0.00
2012-11-19,58,51,44,44,41,39,82,71,58,30.39,30.22,13,3,13,0.00
2012-11-20,58,47,39,44,40,35,87,76,57,30.23,30.08,5,0,5,0.00
2012-11-21,63,46,35,45,36,31,92,71,41,30.22,30.11,7,0,7,0.00
2012-11-22,63,44,31,36,30,27,86,61,29,30.28,30.19,6,0,8,0.00
2012-11-23,67,48,30,42,34,26,85,61,39,30.20,29.91,9,0,9,0.00
2012-11-24,50,42,32,30,22,17,56,46,30,30.14,29.96,11,3,11,0.00
2012-11-25,54,37,24,27,21,16,73,54,32,30.18,30.02,6,0,6,0.00
2012-11-26,67,45,28,33,26,21,77,50,26,30.22,30.09,7,0,7,0.00
2012-11-27,52,47,42,43,38,26,86,72,52,30.27,30.13,6,0,6,0.02
2012-11-28,54,42,31,39,30,23,92,66,34,30.40,30.24,9,0,9,0.00
2012-11-29,57,38,26,32,27,21,84,66,39,30.49,30.36,4,0,4,0.00
2012-11-30,63,43,30,39,32,26,88,68,38,30.41,30.28,0,0,0,0.00
2012-12-1,67,46,33,46,37,30,89,72,45,30.42,30.31,0,0,0,0.00
2012-12-2,70,52,38,52,44,34,89,76,52,30.39,30.24,7,0,7,0.00
2012-12-3,75,58,50,54,49,46,89,73,46,30.32,30.23,0,0,0,0.00
2012-12-4,72,57,44,55,48,42,92,75,46,30.33,30.17,4,0,4,0.00
2012-12-5,62,55,37,57,44,29,89,70,35,30.23,30.13,6,0,6,0.00
2012-12-6,51,44,34,35,32,28,79,63,52,30.34,30.22,7,1,7,0.00
2012-12-7,54,49,46,46,39,34,91,71,56,30.23,30.04,4,0,4,0.00
2012-12-8,62,53,48,54,49,46,93,86,72,30.07,29.99,4,0,4,0.00
2012-12-9,66,57,50,61,54,48,95,91,82,30.15,30.00,3,0,3,0.04
2012-12-10,61,59,57,58,57,55,96,93,89,30.00,29.70,5,0,5,0.00
2012-12-11,61,51,41,58,40,29,90,65,50,30.19,29.73,10,2,10,0.00
2012-12-12,49,43,40,33,30,28,67,59,51,30.33,30.18,11,2,11,0.00
2012-12-13,52,42,30,29,24,20,67,51,32,30.42,30.30,11,2,11,0.00
2012-12-14,57,36,25,32,24,20,83,64,36,30.39,30.24,2,0,2,0.00
2012-12-15,60,45,34,37,30,26,79,58,32,30.28,30.10,6,0,6,0.00
2012-12-16,55,49,45,50,43,32,92,82,55,30.10,29.93,7,0,7,0.30
2012-12-17,56,53,48,54,51,46,95,94,90,29.94,29.67,7,0,7,0.19
2012-12-18,58,50,35,53,41,30,96,74,44,29.94,29.67,11,1,11,0.00
2012-12-19,64,46,32,42,35,28,87,69,41,30.14,29.91,0,0,0,0.00
2012-12-20,54,46,37,53,41,33,94,84,70,30.16,29.54,11,1,11,0.47
2012-12-21,47,40,36,45,28,21,92,64,47,29.87,29.56,16,2,16,0.00
2012-12-22,52,39,30,22,19,15,60,47,24,30.13,29.87,14,3,14,0.00
2012-12-23,55,39,24,27,22,17,78,53,30,30.14,30.02,4,0,4,0.00
2012-12-24,45,43,40,43,38,26,92,82,55,30.03,29.91,6,0,6,0.75
2012-12-25,56,48,42,46,42,41,93,83,64,30.12,29.94,9,0,9,0.00
2012-12-26,46,40,34,42,38,32,94,91,85,30.06,29.51,14,2,14,1.25
2012-12-27,49,38,31,34,30,25,94,74,50,30.11,29.68,10,2,10,0.00
2012-12-28,44,36,27,31,27,22,85,71,57,30.20,29.99,7,0,7,0.00
2012-12-29,52,41,36,42,32,22,90,72,54,30.03,29.71,14,2,14,0.10
2012-12-30,46,36,28,23,20,18,69,52,34,30.40,30.03,13,2,13,0.00
2012-12-31,50,38,25,31,26,19,80,64,47,30.37,30.10,0,0,0,0.00
2013-1-1,48,45,42,46,39,30,93,79,61,30.12,29.96,1,0,4,0.25